DEFGJ EDDL-EDKF
Flight info
| Callsign | DEFGJ |
|---|---|
| Flight time | 0h 5m |
| Altitude | |
| Route | EDDL/05R |
| Aircraft | DV20 |
Departure
| Time | 2026-05-07 20:58 |
|---|---|
| Airport | Düsseldorf Airport (EDDL) |
Arrival
| Time | 2026-05-07 21:04 |
|---|---|
| Airport | Bergneustadt-Auf dem Dümpel Airfield (EDKF) |
| Time | Latitude | Longitude | Altitude | Speed | Heading |
|---|---|---|---|---|---|
| 2026-05-07 20:57 | 51.27898 | 6.75305 | 113 ft | 0 kts | 330° |
| 2026-05-07 20:57 | 51.27919 | 6.75287 | 112 ft | 9 kts | 333° |
| 2026-05-07 20:57 | 51.28003 | 6.75295 | 111 ft | 15 kts | 45° |
| 2026-05-07 20:58 | 51.28177 | 6.75651 | 144 ft | 59 kts | 52° |
| 2026-05-07 20:58 | 51.28490 | 6.76184 | 347 ft | 67 kts | 44° |
| 2026-05-07 20:58 | 51.28794 | 6.76796 | 568 ft | 73 kts | 68° |
| 2026-05-07 20:58 | 51.28853 | 6.77650 | 783 ft | 77 kts | 103° |
| 2026-05-07 20:59 | 51.28686 | 6.78582 | 862 ft | 95 kts | 104° |
| 2026-05-07 20:59 | 51.28482 | 6.79625 | 960 ft | 102 kts | 110° |
| 2026-05-07 20:59 | 51.28213 | 6.80652 | 1092 ft | 103 kts | 114° |
| 2026-05-07 20:59 | 51.27922 | 6.81731 | 1185 ft | 105 kts | 114° |
| 2026-05-07 21:00 | 51.27605 | 6.82763 | 1304 ft | 105 kts | 117° |
| 2026-05-07 21:00 | 51.27239 | 6.83846 | 1285 ft | 110 kts | 118° |
| 2026-05-07 21:00 | 51.26923 | 6.84943 | 1377 ft | 108 kts | 115° |
| 2026-05-07 21:00 | 51.26632 | 6.86041 | 1497 ft | 106 kts | 113° |
| 2026-05-07 21:01 | 51.26336 | 6.87124 | 1608 ft | 107 kts | 116° |
| 2026-05-07 21:01 | 51.26024 | 6.88211 | 1711 ft | 107 kts | 115° |
| 2026-05-07 21:01 | 51.25737 | 6.89311 | 1776 ft | 108 kts | 114° |
| 2026-05-07 21:01 | 51.22519 | 7.00419 | 1790 ft | 1410 kts | 115° |
| 2026-05-07 21:02 | 51.20996 | 7.14065 | 1790 ft | 996 kts | 115° |
| 2026-05-07 21:02 | 51.17834 | 7.24945 | 2260 ft | 1226 kts | 115° |
| 2026-05-07 21:02 | 51.16335 | 7.30591 | 2546 ft | 108 kts | 116° |
| 2026-05-07 21:02 | 51.15992 | 7.31686 | 2514 ft | 113 kts | 120° |
| 2026-05-07 21:03 | 51.15610 | 7.32752 | 2565 ft | 112 kts | 120° |
| 2026-05-07 21:03 | 51.14512 | 7.37005 | 2578 ft | 113 kts | 119° |
| 2026-05-07 21:03 | 51.14121 | 7.38077 | 2628 ft | 109 kts | 124° |
| 2026-05-07 21:03 | 51.13748 | 7.39171 | 2575 ft | 116 kts | 119° |
| 2026-05-07 21:04 | 51.13280 | 7.40615 | 2511 ft | 0 kts | 115° |
| 2026-05-07 21:04 | 51.12041 | 7.42866 | 2511 ft | 1527 kts | 5° |
| 2026-05-07 21:04 | 51.12092 | 7.44999 | 2511 ft | 0 kts | 291° |
| 2026-05-07 21:04 | 51.11591 | 7.46913 | 2531 ft | 0 kts | 291° |
| 2026-05-07 21:05 | 51.11061 | 7.49049 | 2531 ft | 0 kts | 291° |
| 2026-05-07 21:05 | 51.10586 | 7.50863 | 2531 ft | 0 kts | 291° |
| 2026-05-07 21:05 | 51.10082 | 7.52893 | 2531 ft | 1346 kts | 291° |
| 2026-05-07 21:05 | 51.09684 | 7.54412 | 2531 ft | 1311 kts | 291° |
| 2026-05-07 21:06 | 51.09253 | 7.56147 | 2531 ft | 0 kts | 291° |
| 2026-05-07 21:06 | 51.08927 | 7.57285 | 2531 ft | 0 kts | 108° |
| 2026-05-07 21:06 | 51.08604 | 7.58971 | 2531 ft | 0 kts | 108° |
| 2026-05-07 21:06 | 51.08174 | 7.60546 | 2531 ft | 0 kts | 108° |
| 2026-05-07 21:07 | 51.07822 | 7.61762 | 2531 ft | 0 kts | 108° |
| 2026-05-07 21:07 | 51.07436 | 7.63283 | 2531 ft | 0 kts | 108° |
| 2026-05-07 21:07 | 51.07179 | 7.64537 | 2500 ft | 116 kts | 109° |
| 2026-05-07 21:07 | 51.06916 | 7.65731 | 2528 ft | 114 kts | 111° |
| 2026-05-07 21:08 | 51.06636 | 7.66908 | 2547 ft | 114 kts | 112° |
| 2026-05-07 21:08 | 51.06302 | 7.68025 | 2606 ft | 110 kts | 126° |
| 2026-05-07 21:08 | 51.05653 | 7.68650 | 2576 ft | 113 kts | 170° |
| 2026-05-07 21:08 | 51.04847 | 7.68533 | 2415 ft | 123 kts | 191° |
| 2026-05-07 21:09 | 51.04034 | 7.68834 | 2250 ft | 126 kts | 135° |
| 2026-05-07 21:09 | 51.04326 | 7.69896 | 2142 ft | 100 kts | 37° |
| 2026-05-07 21:09 | 51.04922 | 7.70480 | 1625 ft | 118 kts | 15° |
| 2026-05-07 21:09 | 51.05610 | 7.70712 | 1813 ft | 100 kts | 21° |
| 2026-05-07 21:10 | 51.05271 | 7.70892 | 1812 ft | 67 kts | 182° |
| 2026-05-07 21:10 | 51.05295 | 7.70746 | 1611 ft | 105 kts | 25° |
| 2026-05-07 21:10 | 51.05665 | 7.71075 | 1818 ft | 55 kts | 72° |
| 2026-05-07 21:10 | 51.05442 | 7.71159 | 1631 ft | 63 kts | 242° |
| 2026-05-07 21:11 | 51.05199 | 7.70728 | 1604 ft | 46 kts | 220° |
| 2026-05-07 21:11 | 51.05079 | 7.70515 | 1597 ft | 11 kts | 304° |